sensor_id;sensor_type;location;lat;lon;timestamp;pressure;altitude;pressure_sealevel;temperature;humidity
75886;BME280;64561;44.018;10.144;2023-03-04T00:02:22;101616.78;;;7.19;71.55
75886;BME280;64561;44.018;10.144;2023-03-04T00:04:49;101612.25;;;7.14;71.47
75886;BME280;64561;44.018;10.144;2023-03-04T00:07:16;101608.78;;;6.95;72.04
75886;BME280;64561;44.018;10.144;2023-03-04T00:09:45;101618.38;;;7.01;71.82
75886;BME280;64561;44.018;10.144;2023-03-04T00:12:12;101619.81;;;7.12;71.99
75886;BME280;64561;44.018;10.144;2023-03-04T00:14:39;101621.88;;;7.19;72.03
75886;BME280;64561;44.018;10.144;2023-03-04T00:17:06;101629.97;;;7.28;72.70
75886;BME280;64561;44.018;10.144;2023-03-04T00:19:33;101621.06;;;7.20;72.46
75886;BME280;64561;44.018;10.144;2023-03-04T00:22:02;101628.47;;;7.16;72.31
75886;BME280;64561;44.018;10.144;2023-03-04T00:24:30;101627.44;;;7.12;72.29
75886;BME280;64561;44.018;10.144;2023-03-04T00:26:57;101620.75;;;7.14;71.75
75886;BME280;64561;44.018;10.144;2023-03-04T00:29:24;101623.63;;;7.20;72.13
75886;BME280;64561;44.018;10.144;2023-03-04T00:31:51;101615.78;;;7.33;73.02
75886;BME280;64561;44.018;10.144;2023-03-04T00:34:18;101612.75;;;7.41;73.12
75886;BME280;64561;44.018;10.144;2023-03-04T00:36:45;101620.47;;;7.42;71.51
75886;BME280;64561;44.018;10.144;2023-03-04T00:39:12;101615.75;;;7.50;70.44
75886;BME280;64561;44.018;10.144;2023-03-04T00:41:39;101613.53;;;7.40;70.99
75886;BME280;64561;44.018;10.144;2023-03-04T00:44:06;101619.28;;;7.36;70.99
75886;BME280;64561;44.018;10.144;2023-03-04T00:46:33;101615.88;;;7.35;71.61
75886;BME280;64561;44.018;10.144;2023-03-04T00:49:00;101613.53;;;7.40;71.40
75886;BME280;64561;44.018;10.144;2023-03-04T00:51:27;101611.22;;;7.44;71.75
75886;BME280;64561;44.018;10.144;2023-03-04T00:53:54;101606.00;;;7.41;71.62
75886;BME280;64561;44.018;10.144;2023-03-04T00:56:20;101615.59;;;7.47;71.23
75886;BME280;64561;44.018;10.144;2023-03-04T00:58:47;101616.78;;;7.53;72.37
75886;BME280;64561;44.018;10.144;2023-03-04T01:01:14;101608.00;;;7.65;71.58
75886;BME280;64561;44.018;10.144;2023-03-04T01:03:41;101606.59;;;7.71;71.42
75886;BME280;64561;44.018;10.144;2023-03-04T01:06:09;101613.00;;;7.63;71.90
75886;BME280;64561;44.018;10.144;2023-03-04T01:08:38;101605.94;;;7.57;72.24
75886;BME280;64561;44.018;10.144;2023-03-04T01:11:06;101599.97;;;7.57;72.09
75886;BME280;64561;44.018;10.144;2023-03-04T01:13:33;101594.72;;;7.54;71.68
75886;BME280;64561;44.018;10.144;2023-03-04T01:16:00;101586.94;;;7.51;70.80
75886;BME280;64561;44.018;10.144;2023-03-04T01:18:28;101595.38;;;7.50;71.25
75886;BME280;64561;44.018;10.144;2023-03-04T01:20:55;101583.53;;;7.50;71.64
75886;BME280;64561;44.018;10.144;2023-03-04T01:23:22;101587.75;;;7.50;71.83
75886;BME280;64561;44.018;10.144;2023-03-04T01:25:49;101584.53;;;7.54;71.66
75886;BME280;64561;44.018;10.144;2023-03-04T01:28:17;101587.16;;;7.38;70.49
75886;BME280;64561;44.018;10.144;2023-03-04T01:30:44;101572.19;;;7.44;70.47
75886;BME280;64561;44.018;10.144;2023-03-04T01:33:11;101581.97;;;7.36;71.23
75886;BME280;64561;44.018;10.144;2023-03-04T01:35:38;101571.88;;;7.38;71.59
75886;BME280;64561;44.018;10.144;2023-03-04T01:38:04;101569.03;;;7.31;71.64
75886;BME280;64561;44.018;10.144;2023-03-04T01:40:32;101553.91;;;7.35;71.90
75886;BME280;64561;44.018;10.144;2023-03-04T01:42:59;101561.47;;;6.99;71.82
75886;BME280;64561;44.018;10.144;2023-03-04T01:45:25;101566.97;;;6.90;71.42
75886;BME280;64561;44.018;10.144;2023-03-04T01:47:52;101556.44;;;7.00;71.52
75886;BME280;64561;44.018;10.144;2023-03-04T01:50:27;101557.84;;;7.12;72.35
75886;BME280;64561;44.018;10.144;2023-03-04T01:52:55;101551.19;;;7.14;72.63
75886;BME280;64561;44.018;10.144;2023-03-04T01:55:22;101545.44;;;7.18;72.51
75886;BME280;64561;44.018;10.144;2023-03-04T01:57:50;101546.06;;;6.96;72.06
75886;BME280;64561;44.018;10.144;2023-03-04T02:03:00;101544.56;;;6.83;72.28
75886;BME280;64561;44.018;10.144;2023-03-04T02:05:28;101542.91;;;6.67;72.71
75886;BME280;64561;44.018;10.144;2023-03-04T02:07:57;101541.31;;;6.69;72.09
75886;BME280;64561;44.018;10.144;2023-03-04T02:10:25;101537.34;;;6.74;72.02
75886;BME280;64561;44.018;10.144;2023-03-04T02:12:52;101537.16;;;6.87;71.01
75886;BME280;64561;44.018;10.144;2023-03-04T02:15:19;101531.66;;;6.96;71.49
75886;BME280;64561;44.018;10.144;2023-03-04T02:17:48;101536.13;;;7.18;71.29
75886;BME280;64561;44.018;10.144;2023-03-04T02:25:42;101519.75;;;6.95;71.55
75886;BME280;64561;44.018;10.144;2023-03-04T02:28:11;101523.88;;;6.93;72.04
75886;BME280;64561;44.018;10.144;2023-03-04T02:30:38;101525.09;;;6.67;72.57
75886;BME280;64561;44.018;10.144;2023-03-04T02:33:05;101525.34;;;6.72;72.20
75886;BME280;64561;44.018;10.144;2023-03-04T02:35:32;101524.31;;;6.35;73.41
75886;BME280;64561;44.018;10.144;2023-03-04T02:38:00;101527.03;;;6.38;72.90
75886;BME280;64561;44.018;10.144;2023-03-04T02:40:30;101522.78;;;6.55;73.72
75886;BME280;64561;44.018;10.144;2023-03-04T02:42:59;101518.91;;;6.62;73.73
75886;BME280;64561;44.018;10.144;2023-03-04T02:45:46;101521.78;;;6.68;73.07
75886;BME280;64561;44.018;10.144;2023-03-04T02:48:17;101517.94;;;6.76;73.57
75886;BME280;64561;44.018;10.144;2023-03-04T02:50:47;101514.00;;;6.65;72.73
75886;BME280;64561;44.018;10.144;2023-03-04T02:53:15;101514.94;;;6.51;72.76
75886;BME280;64561;44.018;10.144;2023-03-04T02:55:42;101520.91;;;6.35;73.34
75886;BME280;64561;44.018;10.144;2023-03-04T02:58:11;101517.56;;;6.36;73.15
75886;BME280;64561;44.018;10.144;2023-03-04T03:00:38;101519.00;;;6.31;73.12
75886;BME280;64561;44.018;10.144;2023-03-04T03:03:06;101524.00;;;6.29;73.31
75886;BME280;64561;44.018;10.144;2023-03-04T03:05:35;101514.94;;;6.34;73.82
75886;BME280;64561;44.018;10.144;2023-03-04T03:08:03;101515.03;;;6.36;73.86
75886;BME280;64561;44.018;10.144;2023-03-04T03:10:30;101515.91;;;6.36;73.49
75886;BME280;64561;44.018;10.144;2023-03-04T03:12:58;101527.47;;;6.15;74.17
75886;BME280;64561;44.018;10.144;2023-03-04T03:15:25;101528.66;;;6.05;74.19
75886;BME280;64561;44.018;10.144;2023-03-04T03:17:53;101538.28;;;6.11;74.02
75886;BME280;64561;44.018;10.144;2023-03-04T03:20:20;101525.69;;;5.98;74.74
75886;BME280;64561;44.018;10.144;2023-03-04T03:22:47;101522.13;;;6.10;74.35
75886;BME280;64561;44.018;10.144;2023-03-04T03:25:15;101533.22;;;6.11;74.35
75886;BME280;64561;44.018;10.144;2023-03-04T03:27:42;101529.03;;;5.97;74.58
75886;BME280;64561;44.018;10.144;2023-03-04T03:30:12;101525.34;;;5.91;74.95
75886;BME280;64561;44.018;10.144;2023-03-04T03:32:39;101530.97;;;5.86;75.00
75886;BME280;64561;44.018;10.144;2023-03-04T03:35:07;101517.38;;;5.85;75.54
75886;BME280;64561;44.018;10.144;2023-03-04T03:37:34;101518.88;;;5.97;75.32
75886;BME280;64561;44.018;10.144;2023-03-04T03:40:01;101517.38;;;5.85;75.32
75886;BME280;64561;44.018;10.144;2023-03-04T03:42:28;101528.19;;;5.81;75.39
75886;BME280;64561;44.018;10.144;2023-03-04T03:44:54;101527.16;;;5.78;75.83
75886;BME280;64561;44.018;10.144;2023-03-04T03:47:22;101528.06;;;5.63;76.22
75886;BME280;64561;44.018;10.144;2023-03-04T03:49:48;101531.25;;;5.76;76.11
75886;BME280;64561;44.018;10.144;2023-03-04T03:52:15;101523.34;;;5.86;75.33
75886;BME280;64561;44.018;10.144;2023-03-04T03:54:42;101522.13;;;5.94;75.07
75886;BME280;64561;44.018;10.144;2023-03-04T03:57:09;101526.09;;;5.59;75.96
75886;BME280;64561;44.018;10.144;2023-03-04T03:59:36;101533.72;;;5.59;75.51
75886;BME280;64561;44.018;10.144;2023-03-04T04:02:02;101536.06;;;5.71;75.23
75886;BME280;64561;44.018;10.144;2023-03-04T04:04:29;101533.78;;;5.76;74.63
75886;BME280;64561;44.018;10.144;2023-03-04T04:06:56;101527.59;;;5.70;75.54
75886;BME280;64561;44.018;10.144;2023-03-04T04:09:23;101532.13;;;5.76;75.51
75886;BME280;64561;44.018;10.144;2023-03-04T04:11:50;101533.34;;;5.83;76.08
75886;BME280;64561;44.018;10.144;2023-03-04T04:14:16;101547.09;;;5.71;75.72
75886;BME280;64561;44.018;10.144;2023-03-04T04:16:43;101537.53;;;5.82;76.11
75886;BME280;64561;44.018;10.144;2023-03-04T04:19:16;101531.47;;;5.95;75.64
75886;BME280;64561;44.018;10.144;2023-03-04T04:21:44;101525.69;;;5.98;75.74
75886;BME280;64561;44.018;10.144;2023-03-04T04:24:10;101527.81;;;6.05;75.11
75886;BME280;64561;44.018;10.144;2023-03-04T04:26:38;101523.59;;;6.05;74.58
75886;BME280;64561;44.018;10.144;2023-03-04T04:29:04;101538.84;;;5.90;73.88
75886;BME280;64561;44.018;10.144;2023-03-04T04:31:31;101544.69;;;5.58;75.88
75886;BME280;64561;44.018;10.144;2023-03-04T04:33:58;101538.09;;;5.62;75.28
75886;BME280;64561;44.018;10.144;2023-03-04T04:36:25;101534.88;;;5.64;74.64
75886;BME280;64561;44.018;10.144;2023-03-04T04:38:52;101545.78;;;5.78;74.27
75886;BME280;64561;44.018;10.144;2023-03-04T04:41:21;101538.69;;;5.87;74.30
75886;BME280;64561;44.018;10.144;2023-03-04T04:43:49;101547.81;;;5.69;74.68
75886;BME280;64561;44.018;10.144;2023-03-04T04:46:16;101550.94;;;5.80;74.38
75886;BME280;64561;44.018;10.144;2023-03-04T04:48:43;101541.28;;;5.89;74.48
75886;BME280;64561;44.018;10.144;2023-03-04T04:51:10;101538.41;;;5.98;74.73
75886;BME280;64561;44.018;10.144;2023-03-04T04:53:38;101547.22;;;6.04;74.70
75886;BME280;64561;44.018;10.144;2023-03-04T04:56:12;101542.13;;;6.04;74.20
75886;BME280;64561;44.018;10.144;2023-03-04T04:58:39;101546.34;;;5.89;74.46
75886;BME280;64561;44.018;10.144;2023-03-04T05:01:06;101551.75;;;5.93;74.66
75886;BME280;64561;44.018;10.144;2023-03-04T05:03:34;101541.81;;;5.98;74.92
75886;BME280;64561;44.018;10.144;2023-03-04T05:06:02;101538.91;;;6.07;75.32
75886;BME280;64561;44.018;10.144;2023-03-04T05:08:29;101549.19;;;5.93;75.08
75886;BME280;64561;44.018;10.144;2023-03-04T05:10:56;101548.72;;;5.86;75.14
75886;BME280;64561;44.018;10.144;2023-03-04T05:13:23;101543.25;;;5.78;75.05
75886;BME280;64561;44.018;10.144;2023-03-04T05:15:55;101551.41;;;5.72;75.06
75886;BME280;64561;44.018;10.144;2023-03-04T05:18:23;101547.06;;;5.55;76.87
75886;BME280;64561;44.018;10.144;2023-03-04T05:20:56;101547.50;;;5.63;76.39
75886;BME280;64561;44.018;10.144;2023-03-04T05:23:24;101549.91;;;5.76;75.27
75886;BME280;64561;44.018;10.144;2023-03-04T05:25:51;101543.84;;;5.74;75.85
75886;BME280;64561;44.018;10.144;2023-03-04T05:28:18;101555.84;;;5.77;76.26
75886;BME280;64561;44.018;10.144;2023-03-04T05:30:46;101552.78;;;5.82;76.01
75886;BME280;64561;44.018;10.144;2023-03-04T05:33:14;101544.69;;;5.89;76.31
75886;BME280;64561;44.018;10.144;2023-03-04T05:35:42;101554.28;;;5.79;76.24
75886;BME280;64561;44.018;10.144;2023-03-04T05:38:12;101553.59;;;5.66;76.76
75886;BME280;64561;44.018;10.144;2023-03-04T05:40:40;101548.59;;;5.68;76.50
75886;BME280;64561;44.018;10.144;2023-03-04T05:43:07;101552.41;;;5.60;76.66
75886;BME280;64561;44.018;10.144;2023-03-04T05:45:34;101555.69;;;5.59;76.72
75886;BME280;64561;44.018;10.144;2023-03-04T05:48:01;101556.31;;;5.69;76.98
75886;BME280;64561;44.018;10.144;2023-03-04T05:50:28;101564.97;;;5.73;76.73
75886;BME280;64561;44.018;10.144;2023-03-04T05:52:56;101562.59;;;5.76;76.22
75886;BME280;64561;44.018;10.144;2023-03-04T05:55:22;101565.44;;;5.66;75.94
75886;BME280;64561;44.018;10.144;2023-03-04T05:57:49;101565.78;;;5.42;76.08
75886;BME280;64561;44.018;10.144;2023-03-04T06:00:16;101568.41;;;5.29;77.00
75886;BME280;64561;44.018;10.144;2023-03-04T06:02:44;101565.69;;;5.41;77.04
75886;BME280;64561;44.018;10.144;2023-03-04T06:05:13;101564.03;;;5.41;76.39
75886;BME280;64561;44.018;10.144;2023-03-04T06:07:40;101577.16;;;5.04;78.47
75886;BME280;64561;44.018;10.144;2023-03-04T06:10:10;101578.31;;;5.24;78.01
75886;BME280;64561;44.018;10.144;2023-03-04T06:12:38;101574.56;;;5.18;77.84
75886;BME280;64561;44.018;10.144;2023-03-04T06:15:05;101574.97;;;5.11;78.39
75886;BME280;64561;44.018;10.144;2023-03-04T06:17:32;101584.34;;;5.26;77.91
75886;BME280;64561;44.018;10.144;2023-03-04T06:19:59;101584.78;;;5.34;77.46
75886;BME280;64561;44.018;10.144;2023-03-04T06:22:26;101577.97;;;5.18;78.72
75886;BME280;64561;44.018;10.144;2023-03-04T06:24:52;101584.25;;;5.10;79.51
75886;BME280;64561;44.018;10.144;2023-03-04T06:27:19;101591.16;;;5.27;79.13
75886;BME280;64561;44.018;10.144;2023-03-04T06:29:46;101591.41;;;5.32;79.11
75886;BME280;64561;44.018;10.144;2023-03-04T06:32:13;101589.84;;;5.19;80.12
75886;BME280;64561;44.018;10.144;2023-03-04T06:34:39;101602.28;;;5.30;79.91
75886;BME280;64561;44.018;10.144;2023-03-04T06:37:06;101595.91;;;5.36;79.83
75886;BME280;64561;44.018;10.144;2023-03-04T06:39:33;101591.41;;;5.47;78.99
75886;BME280;64561;44.018;10.144;2023-03-04T06:42:00;101600.00;;;5.49;79.14
75886;BME280;64561;44.018;10.144;2023-03-04T06:44:27;101603.69;;;5.54;79.64
75886;BME280;64561;44.018;10.144;2023-03-04T06:46:53;101602.72;;;5.67;79.82
75886;BME280;64561;44.018;10.144;2023-03-04T06:49:20;101607.59;;;5.79;79.92
75886;BME280;64561;44.018;10.144;2023-03-04T06:51:47;101608.97;;;5.88;79.82
75886;BME280;64561;44.018;10.144;2023-03-04T06:54:14;101612.22;;;6.01;79.36
75886;BME280;64561;44.018;10.144;2023-03-04T06:56:41;101603.44;;;6.10;79.05
75886;BME280;64561;44.018;10.144;2023-03-04T06:59:07;101603.06;;;6.19;78.59
75886;BME280;64561;44.018;10.144;2023-03-04T07:01:36;101608.75;;;6.30;79.02
75886;BME280;64561;44.018;10.144;2023-03-04T07:04:03;101607.88;;;6.46;78.60
75886;BME280;64561;44.018;10.144;2023-03-04T07:06:31;101607.59;;;6.56;79.06
75886;BME280;64561;44.018;10.144;2023-03-04T07:08:58;101614.34;;;6.72;78.35
75886;BME280;64561;44.018;10.144;2023-03-04T07:11:25;101616.56;;;6.82;78.63
75886;BME280;64561;44.018;10.144;2023-03-04T07:13:52;101603.53;;;6.92;77.86
75886;BME280;64561;44.018;10.144;2023-03-04T07:16:22;101612.88;;;7.09;78.02
75886;BME280;64561;44.018;10.144;2023-03-04T07:18:50;101610.03;;;7.20;77.67
75886;BME280;64561;44.018;10.144;2023-03-04T07:21:17;101618.25;;;7.32;78.00
75886;BME280;64561;44.018;10.144;2023-03-04T07:23:44;101627.63;;;7.49;77.22
75886;BME280;64561;44.018;10.144;2023-03-04T07:26:11;101608.72;;;7.62;76.98
75886;BME280;64561;44.018;10.144;2023-03-04T07:28:39;101617.97;;;7.78;76.37
75886;BME280;64561;44.018;10.144;2023-03-04T07:31:19;101612.19;;;7.82;75.86
75886;BME280;64561;44.018;10.144;2023-03-04T07:33:47;101609.22;;;7.91;75.94
75886;BME280;64561;44.018;10.144;2023-03-04T07:36:14;101605.38;;;7.99;75.63
75886;BME280;64561;44.018;10.144;2023-03-04T07:38:45;101609.22;;;8.09;74.67
75886;BME280;64561;44.018;10.144;2023-03-04T07:41:13;101613.00;;;8.17;71.65
75886;BME280;64561;44.018;10.144;2023-03-04T07:43:40;101612.75;;;8.30;71.83
75886;BME280;64561;44.018;10.144;2023-03-04T07:46:08;101610.41;;;8.35;71.67
75886;BME280;64561;44.018;10.144;2023-03-04T07:48:35;101615.38;;;8.50;71.32
75886;BME280;64561;44.018;10.144;2023-03-04T07:53:36;101615.19;;;8.64;69.67
75886;BME280;64561;44.018;10.144;2023-03-04T07:56:04;101617.88;;;8.67;69.33
75886;BME280;64561;44.018;10.144;2023-03-04T07:58:31;101620.56;;;8.70;70.01
75886;BME280;64561;44.018;10.144;2023-03-04T08:00:58;101612.63;;;8.84;70.97
75886;BME280;64561;44.018;10.144;2023-03-04T08:03:25;101614.66;;;8.91;70.81
75886;BME280;64561;44.018;10.144;2023-03-04T08:05:54;101617.06;;;9.07;68.96
75886;BME280;64561;44.018;10.144;2023-03-04T08:08:21;101613.53;;;9.05;69.38
75886;BME280;64561;44.018;10.144;2023-03-04T08:10:47;101613.19;;;9.17;68.74
75886;BME280;64561;44.018;10.144;2023-03-04T08:13:14;101616.22;;;9.28;66.92
75886;BME280;64561;44.018;10.144;2023-03-04T08:15:41;101611.94;;;9.27;67.86
75886;BME280;64561;44.018;10.144;2023-03-04T08:18:08;101616.25;;;9.29;69.02
75886;BME280;64561;44.018;10.144;2023-03-04T08:20:35;101620.41;;;9.47;69.94
75886;BME280;64561;44.018;10.144;2023-03-04T08:23:02;101616.59;;;9.58;69.80
75886;BME280;64561;44.018;10.144;2023-03-04T08:25:30;101618.84;;;9.71;69.23
75886;BME280;64561;44.018;10.144;2023-03-04T08:27:57;101616.41;;;9.74;68.38
75886;BME280;64561;44.018;10.144;2023-03-04T08:30:24;101614.78;;;9.76;68.86
75886;BME280;64561;44.018;10.144;2023-03-04T08:32:51;101616.22;;;9.91;68.66
75886;BME280;64561;44.018;10.144;2023-03-04T08:35:18;101617.88;;;10.11;68.67
75886;BME280;64561;44.018;10.144;2023-03-04T08:37:45;101620.66;;;10.17;68.14
75886;BME280;64561;44.018;10.144;2023-03-04T08:40:13;101605.53;;;10.23;67.62
75886;BME280;64561;44.018;10.144;2023-03-04T08:42:40;101605.47;;;10.22;65.85
75886;BME280;64561;44.018;10.144;2023-03-04T08:45:08;101610.66;;;10.23;67.86
75886;BME280;64561;44.018;10.144;2023-03-04T08:47:35;101604.50;;;10.18;67.63
75886;BME280;64561;44.018;10.144;2023-03-04T08:50:04;101607.88;;;10.40;67.49
75886;BME280;64561;44.018;10.144;2023-03-04T08:52:31;101618.88;;;10.37;66.90
75886;BME280;64561;44.018;10.144;2023-03-04T08:54:59;101613.06;;;10.41;67.99
75886;BME280;64561;44.018;10.144;2023-03-04T08:57:26;101616.31;;;10.60;67.81
75886;BME280;64561;44.018;10.144;2023-03-04T08:59:53;101602.69;;;10.61;67.29
75886;BME280;64561;44.018;10.144;2023-03-04T09:02:20;101602.44;;;10.77;68.27
75886;BME280;64561;44.018;10.144;2023-03-04T09:04:47;101604.41;;;10.86;67.17
75886;BME280;64561;44.018;10.144;2023-03-04T09:07:14;101604.31;;;10.83;68.23
75886;BME280;64561;44.018;10.144;2023-03-04T09:09:41;101601.84;;;10.86;68.89
75886;BME280;64561;44.018;10.144;2023-03-04T09:12:08;101610.75;;;10.95;69.44
75886;BME280;64561;44.018;10.144;2023-03-04T09:14:35;101605.19;;;11.07;70.18
75886;BME280;64561;44.018;10.144;2023-03-04T09:17:03;101608.09;;;11.18;70.83
75886;BME280;64561;44.018;10.144;2023-03-04T09:19:30;101610.00;;;11.24;69.49
75886;BME280;64561;44.018;10.144;2023-03-04T09:21:57;101604.72;;;11.19;67.25
75886;BME280;64561;44.018;10.144;2023-03-04T09:24:27;101610.94;;;11.26;68.62
75886;BME280;64561;44.018;10.144;2023-03-04T09:26:54;101608.47;;;11.29;66.42
75886;BME280;64561;44.018;10.144;2023-03-04T09:29:24;101609.44;;;11.32;66.69
75886;BME280;64561;44.018;10.144;2023-03-04T09:31:50;101609.88;;;11.46;69.01
75886;BME280;64561;44.018;10.144;2023-03-04T09:34:17;101605.75;;;11.50;69.11
75886;BME280;64561;44.018;10.144;2023-03-04T09:36:44;101610.63;;;11.67;69.28
75886;BME280;64561;44.018;10.144;2023-03-04T09:39:11;101610.91;;;11.77;68.03
75886;BME280;64561;44.018;10.144;2023-03-04T09:41:49;101602.09;;;11.68;67.73
75886;BME280;64561;44.018;10.144;2023-03-04T09:44:37;101606.53;;;11.74;67.88
75886;BME280;64561;44.018;10.144;2023-03-04T09:47:11;101605.00;;;11.79;68.20
75886;BME280;64561;44.018;10.144;2023-03-04T09:49:41;101602.84;;;11.92;68.61
75886;BME280;64561;44.018;10.144;2023-03-04T09:57:47;101603.16;;;12.02;66.28
75886;BME280;64561;44.018;10.144;2023-03-04T10:00:23;101599.66;;;12.00;65.93
75886;BME280;64561;44.018;10.144;2023-03-04T10:03:04;101593.84;;;12.06;66.46
75886;BME280;64561;44.018;10.144;2023-03-04T10:05:33;101588.91;;;12.12;64.08
75886;BME280;64561;44.018;10.144;2023-03-04T10:08:17;101598.31;;;12.11;64.60
75886;BME280;64561;44.018;10.144;2023-03-04T10:10:47;101591.84;;;12.24;64.33
75886;BME280;64561;44.018;10.144;2023-03-04T10:13:18;101584.13;;;12.24;62.67
75886;BME280;64561;44.018;10.144;2023-03-04T10:15:49;101590.94;;;12.22;63.64
75886;BME280;64561;44.018;10.144;2023-03-04T10:18:26;101586.28;;;12.39;61.39
75886;BME280;64561;44.018;10.144;2023-03-04T10:21:00;101586.69;;;12.53;62.48
75886;BME280;64561;44.018;10.144;2023-03-04T10:23:28;101583.25;;;12.52;62.17
75886;BME280;64561;44.018;10.144;2023-03-04T10:25:58;101587.56;;;12.53;61.99
75886;BME280;64561;44.018;10.144;2023-03-04T10:28:30;101586.34;;;12.72;60.39
75886;BME280;64561;44.018;10.144;2023-03-04T10:30:59;101583.88;;;12.75;57.99
75886;BME280;64561;44.018;10.144;2023-03-04T10:33:33;101577.59;;;12.64;59.00
75886;BME280;64561;44.018;10.144;2023-03-04T10:39:10;101583.88;;;12.75;59.33
75886;BME280;64561;44.018;10.144;2023-03-04T10:41:42;101574.03;;;12.91;58.44
75886;BME280;64561;44.018;10.144;2023-03-04T10:46:40;101568.31;;;13.02;56.81
75886;BME280;64561;44.018;10.144;2023-03-04T10:49:13;101563.31;;;13.07;58.13
75886;BME280;64561;44.018;10.144;2023-03-04T10:51:45;101566.03;;;13.13;55.73
75886;BME280;64561;44.018;10.144;2023-03-04T10:54:23;101560.91;;;13.13;56.49
75886;BME280;64561;44.018;10.144;2023-03-04T10:57:16;101559.41;;;13.23;56.45
75886;BME280;64561;44.018;10.144;2023-03-04T10:59:48;101566.28;;;13.22;55.75
75886;BME280;64561;44.018;10.144;2023-03-04T11:07:22;101561.38;;;13.30;54.91
75886;BME280;64561;44.018;10.144;2023-03-04T11:09:49;101557.88;;;13.28;55.38
75886;BME280;64561;44.018;10.144;2023-03-04T11:12:19;101558.16;;;13.39;53.81
75886;BME280;64561;44.018;10.144;2023-03-04T11:14:49;101558.09;;;13.37;53.62
75886;BME280;64561;44.018;10.144;2023-03-04T11:17:27;101557.97;;;13.33;52.05
75886;BME280;64561;44.018;10.144;2023-03-04T11:20:00;101555.47;;;13.34;54.48
75886;BME280;64561;44.018;10.144;2023-03-04T11:22:31;101551.44;;;13.45;52.78
75886;BME280;64561;44.018;10.144;2023-03-04T11:25:02;101545.75;;;13.59;50.73
75886;BME280;64561;44.018;10.144;2023-03-04T11:27:41;101555.31;;;13.64;51.71
75886;BME280;64561;44.018;10.144;2023-03-04T11:32:46;101549.16;;;13.58;51.82
75886;BME280;64561;44.018;10.144;2023-03-04T11:38:07;101525.94;;;13.55;52.66
75886;BME280;64561;44.018;10.144;2023-03-04T11:40:45;101535.47;;;13.59;53.36
75886;BME280;64561;44.018;10.144;2023-03-04T11:43:29;101532.97;;;13.62;53.72
75886;BME280;64561;44.018;10.144;2023-03-04T11:56:52;101507.09;;;13.54;51.22
75886;BME280;64561;44.018;10.144;2023-03-04T12:25:01;101486.72;;;14.04;49.08
75886;BME280;64561;44.018;10.144;2023-03-04T12:27:41;101478.19;;;14.07;50.02
75886;BME280;64561;44.018;10.144;2023-03-04T12:33:09;101467.72;;;13.98;50.02
75886;BME280;64561;44.018;10.144;2023-03-04T12:46:39;101453.00;;;13.90;49.93
75886;BME280;64561;44.018;10.144;2023-03-04T12:49:14;101435.91;;;13.94;48.86
75886;BME280;64561;44.018;10.144;2023-03-04T12:51:54;101442.84;;;13.97;50.30
75886;BME280;64561;44.018;10.144;2023-03-04T12:54:42;101435.19;;;14.01;48.34
75886;BME280;64561;44.018;10.144;2023-03-04T12:57:14;101435.34;;;14.10;50.04
75886;BME280;64561;44.018;10.144;2023-03-04T13:00:07;101428.50;;;14.11;48.77
75886;BME280;64561;44.018;10.144;2023-03-04T13:05:28;101430.28;;;14.13;49.02
75886;BME280;64561;44.018;10.144;2023-03-04T13:11:07;101420.19;;;14.24;50.76
75886;BME280;64561;44.018;10.144;2023-03-04T13:19:51;101411.34;;;14.10;49.55
75886;BME280;64561;44.018;10.144;2023-03-04T13:22:28;101422.47;;;14.09;48.53
75886;BME280;64561;44.018;10.144;2023-03-04T13:24:57;101415.63;;;14.09;49.75
75886;BME280;64561;44.018;10.144;2023-03-04T13:27:50;101409.72;;;14.15;48.10
75886;BME280;64561;44.018;10.144;2023-03-04T13:33:13;101403.94;;;14.28;51.25
75886;BME280;64561;44.018;10.144;2023-03-04T13:41:18;101399.56;;;14.23;51.02
75886;BME280;64561;44.018;10.144;2023-03-04T13:43:48;101394.97;;;14.06;50.86
75886;BME280;64561;44.018;10.144;2023-03-04T13:56:27;101394.28;;;14.15;52.34
75886;BME280;64561;44.018;10.144;2023-03-04T14:01:29;101387.41;;;14.15;54.45
75886;BME280;64561;44.018;10.144;2023-03-04T14:03:59;101394.44;;;14.24;53.29
75886;BME280;64561;44.018;10.144;2023-03-04T14:06:29;101389.19;;;14.18;53.29
75886;BME280;64561;44.018;10.144;2023-03-04T14:08:56;101390.84;;;14.14;52.32
75886;BME280;64561;44.018;10.144;2023-03-04T14:11:37;101389.88;;;14.09;51.74
75886;BME280;64561;44.018;10.144;2023-03-04T14:14:12;101380.16;;;13.94;53.09
75886;BME280;64561;44.018;10.144;2023-03-04T14:16:51;101375.81;;;13.92;53.34
75886;BME280;64561;44.018;10.144;2023-03-04T14:19:42;101380.97;;;13.90;54.70
75886;BME280;64561;44.018;10.144;2023-03-04T14:22:25;101379.47;;;14.03;52.94
75886;BME280;64561;44.018;10.144;2023-03-04T14:24:57;101369.25;;;14.06;53.54
75886;BME280;64561;44.018;10.144;2023-03-04T14:27:24;101380.44;;;14.10;54.23
75886;BME280;64561;44.018;10.144;2023-03-04T14:29:59;101376.28;;;14.16;54.72
75886;BME280;64561;44.018;10.144;2023-03-04T14:32:27;101368.53;;;14.15;53.85
75886;BME280;64561;44.018;10.144;2023-03-04T14:34:58;101370.16;;;14.10;54.32
75886;BME280;64561;44.018;10.144;2023-03-04T14:37:39;101367.41;;;14.01;53.50
75886;BME280;64561;44.018;10.144;2023-03-04T14:40:20;101358.44;;;13.80;54.71
75886;BME280;64561;44.018;10.144;2023-03-04T14:42:52;101363.59;;;13.79;55.64
75886;BME280;64561;44.018;10.144;2023-03-04T14:45:21;101353.41;;;13.85;56.95
75886;BME280;64561;44.018;10.144;2023-03-04T14:47:51;101355.47;;;14.04;56.22
75886;BME280;64561;44.018;10.144;2023-03-04T14:50:20;101352.03;;;14.02;55.91
75886;BME280;64561;44.018;10.144;2023-03-04T14:52:49;101346.81;;;13.99;56.60